Time;durP1;ratioP1;P1;durP2;ratioP2;P2;SDS_P1;SDS_P2;PMS_P1;PMS_P2;Temp;Humidity;BMP_temperature;BMP_pressure;BME280_temperature;BME280_humidity;BME280_pressure;Samples;Min_cycle;Max_cycle;Signal;HPM_P1;HPM_P2
2020/12/23 00:01:28;;;;;;;31.80;14.63;;;;;;;0.82;72.09;101378.29;127738;1092;104419;-75
2020/12/23 00:03:57;;;;;;;34.23;14.43;;;;;;;0.82;72.24;101385.14;127801;1091;104418;-75
2020/12/23 00:06:34;;;;;;;33.93;15.00;;;;;;;0.83;72.26;101387.87;127704;1092;104488;-75
2020/12/23 00:09:05;;;;;;;34.83;15.33;;;;;;;0.86;72.48;101387.24;127738;1092;104573;-74
2020/12/23 00:11:35;;;;;;;30.83;14.60;;;;;;;0.87;72.58;101376.11;127794;1091;104455;-76
2020/12/23 00:14:04;;;;;;;31.50;14.40;;;;;;;0.88;72.07;101375.35;127785;1091;104913;-75
2020/12/23 00:16:33;;;;;;;33.10;13.90;;;;;;;0.88;72.51;101362.44;127832;1092;104421;-75
2020/12/23 00:19:02;;;;;;;34.17;15.57;;;;;;;0.87;71.84;101368.36;127755;1092;104548;-76
2020/12/23 00:21:34;;;;;;;33.50;14.70;;;;;;;0.84;72.13;101366.44;127820;1091;104503;-76
2020/12/23 00:24:03;;;;;;;33.27;15.77;;;;;;;0.84;72.12;101360.34;127765;1092;104522;-75
2020/12/23 00:26:32;;;;;;;34.03;15.67;;;;;;;0.84;72.24;101357.75;127627;1092;104410;-76
2020/12/23 00:29:01;;;;;;;31.13;13.93;;;;;;;0.81;72.36;101358.41;127698;1091;104499;-76
2020/12/23 00:31:30;;;;;;;33.87;15.03;;;;;;;0.79;72.14;101356.45;127719;1091;104430;-74
2020/12/23 00:33:59;;;;;;;32.10;13.93;;;;;;;0.76;72.29;101349.33;127776;1091;104545;-75
2020/12/23 00:36:30;;;;;;;33.83;15.50;;;;;;;0.74;72.48;101345.70;127657;1092;105013;-75
2020/12/23 00:39:03;;;;;;;34.43;15.30;;;;;;;0.74;71.93;101349.98;127735;1092;104461;-75
2020/12/23 00:41:32;;;;;;;34.27;15.43;;;;;;;0.74;72.03;101352.56;127771;1091;104420;-76
2020/12/23 00:44:01;;;;;;;33.57;14.93;;;;;;;0.75;72.70;101355.28;127773;1091;104422;-75
2020/12/23 00:46:30;;;;;;;32.90;14.33;;;;;;;0.73;72.29;101359.39;127789;1091;104417;-74
2020/12/23 00:48:59;;;;;;;34.23;14.97;;;;;;;0.71;72.10;101353.19;127765;1091;105776;-74
2020/12/23 00:51:28;;;;;;;32.70;14.03;;;;;;;0.71;72.32;101350.61;127728;1091;104480;-75
2020/12/23 00:53:57;;;;;;;33.90;14.67;;;;;;;0.70;72.70;101341.95;127744;1092;104477;-74
2020/12/23 00:56:26;;;;;;;33.60;14.80;;;;;;;0.71;72.38;101340.27;127770;1092;104493;-75
2020/12/23 00:58:55;;;;;;;32.83;15.10;;;;;;;0.72;72.54;101324.02;127805;1092;104448;-76
2020/12/23 01:01:24;;;;;;;30.60;13.47;;;;;;;0.71;72.17;101320.50;127805;1091;104487;-74
2020/12/23 01:03:53;;;;;;;36.90;16.43;;;;;;;0.68;72.43;101319.34;127764;1092;104602;-75
2020/12/23 01:06:22;;;;;;;32.03;15.10;;;;;;;0.69;72.60;101319.47;127821;1092;104420;-75
2020/12/23 01:08:51;;;;;;;32.20;14.87;;;;;;;0.68;72.49;101314.16;127806;1091;104481;-75
2020/12/23 01:11:22;;;;;;;36.60;16.27;;;;;;;0.65;72.54;101314.79;127724;1091;104414;-74
2020/12/23 01:13:53;;;;;;;36.60;15.90;;;;;;;0.66;72.69;101307.97;127768;1091;104440;-75
2020/12/23 01:17:27;;;;;;;;;;;;;;;;;;;;;
2020/12/23 01:20:18;;;;;;;35.97;15.60;;;;;;;0.73;72.68;101304.23;127243;1091;104447;-75
2020/12/23 01:22:48;;;;;;;36.63;16.47;;;;;;;0.73;72.56;101299.97;127778;1092;104411;-75
2020/12/23 01:25:16;;;;;;;36.70;14.97;;;;;;;0.74;72.48;101298.31;127827;1091;104419;-74
2020/12/23 01:27:50;;;;;;;35.47;16.07;;;;;;;0.74;72.44;101286.29;127814;1091;104736;-76
2020/12/23 01:30:24;;;;;;;35.50;15.47;;;;;;;0.76;72.56;101283.84;127758;1092;104484;-75
2020/12/23 01:32:53;;;;;;;35.37;15.33;;;;;;;0.77;72.67;101288.25;127818;1092;104411;-74
2020/12/23 01:35:22;;;;;;;35.50;14.93;;;;;;;0.75;72.43;101287.19;127792;1091;104414;-73
2020/12/23 01:37:52;;;;;;;37.90;16.33;;;;;;;0.73;72.64;101281.88;127375;1093;104518;-73
2020/12/23 01:40:20;;;;;;;37.60;16.30;;;;;;;0.73;72.76;101274.13;127355;1092;105635;-75
2020/12/23 01:42:49;;;;;;;35.05;14.30;;;;;;;0.71;72.79;101275.69;127768;1091;104416;-74
2020/12/23 01:45:18;;;;;;;36.97;17.03;;;;;;;0.70;72.76;101273.86;127788;1091;104414;-75
2020/12/23 01:47:47;;;;;;;34.57;16.43;;;;;;;0.70;72.74;101267.05;127786;1092;104490;-75
2020/12/23 01:50:17;;;;;;;36.93;17.10;;;;;;;0.71;72.68;101270.52;127782;1092;104944;-74
2020/12/23 01:52:46;;;;;;;31.70;12.37;;;;;;;0.70;72.91;101271.28;127781;1091;104461;-74
2020/12/23 01:55:15;;;;;;;39.97;17.27;;;;;;;0.67;72.77;101260.68;127749;1092;104411;-76
2020/12/23 01:57:47;;;;;;;37.07;15.93;;;;;;;0.66;72.95;101264.95;127710;1091;104408;-74
2020/12/23 02:00:17;;;;;;;39.97;16.77;;;;;;;0.65;72.79;101268.30;127833;1091;104449;-73
2020/12/23 02:02:51;;;;;;;38.23;14.80;;;;;;;0.65;72.69;101257.06;127801;1091;104900;-74
2020/12/23 02:05:21;;;;;;;40.17;17.10;;;;;;;0.63;73.13;101249.19;127780;1092;104558;-74
2020/12/23 02:07:50;;;;;;;37.13;16.47;;;;;;;0.63;73.11;101244.02;127788;1091;105054;-74
2020/12/23 02:10:19;;;;;;;36.53;16.77;;;;;;;0.65;73.15;101245.05;127736;1092;104475;-74
2020/12/23 02:12:48;;;;;;;39.10;17.03;;;;;;;0.65;73.10;101246.73;127794;1091;104554;-75
2020/12/23 02:15:17;;;;;;;32.13;13.80;;;;;;;0.68;73.38;101247.00;127700;1091;104484;-74
2020/12/23 02:17:47;;;;;;;39.73;17.37;;;;;;;0.69;72.82;101251.41;127821;1092;104423;-75
2020/12/23 02:20:17;;;;;;;39.63;17.80;;;;;;;0.73;73.03;101244.82;127750;1091;104455;-75
2020/12/23 02:22:47;;;;;;;39.60;16.90;;;;;;;0.74;73.22;101247.53;127780;1092;104413;-77
2020/12/23 02:25:16;;;;;;;40.27;17.90;;;;;;;0.76;73.11;101245.09;127764;1092;104430;-75
2020/12/23 02:27:45;;;;;;;42.33;17.50;;;;;;;0.78;73.18;101238.36;127785;1092;104430;-75
2020/12/23 02:30:14;;;;;;;40.53;17.97;;;;;;;0.78;73.15;101234.13;127747;1092;104417;-76
2020/12/23 02:32:43;;;;;;;40.03;17.17;;;;;;;0.80;73.16;101226.51;127746;1091;104580;-75
2020/12/23 02:35:12;;;;;;;36.60;15.80;;;;;;;0.77;73.50;101218.48;127824;1091;104235;-74
2020/12/23 02:37:41;;;;;;;35.63;16.20;;;;;;;0.75;73.04;101217.43;127812;1091;104542;-74
2020/12/23 02:40:10;;;;;;;41.63;17.07;;;;;;;0.72;73.11;101207.77;127758;1091;104414;-73
2020/12/23 02:42:39;;;;;;;47.80;18.77;;;;;;;0.74;73.15;101213.06;127809;1091;104563;-74
2020/12/23 02:45:13;;;;;;;41.23;18.13;;;;;;;0.73;73.47;101214.72;127731;1091;104449;-75
2020/12/23 02:47:44;;;;;;;40.20;17.17;;;;;;;0.74;73.58;101220.81;127790;1093;104426;-75
2020/12/23 02:50:13;;;;;;;37.43;17.10;;;;;;;0.72;73.51;101215.52;127716;1092;104456;-76
2020/12/23 02:52:42;;;;;;;37.83;16.90;;;;;;;0.71;73.68;101227.50;127806;1092;104449;-75
2020/12/23 02:55:21;;;;;;;41.03;17.63;;;;;;;0.73;73.42;101231.91;127759;1092;104404;-75
2020/12/23 02:57:51;;;;;;;38.40;17.43;;;;;;;0.74;73.19;101225.98;127727;1091;104509;-75
2020/12/23 03:00:21;;;;;;;37.10;15.90;;;;;;;0.77;73.82;101227.14;127796;1091;104410;-74
2020/12/23 03:02:50;;;;;;;40.43;19.13;;;;;;;0.78;73.46;101217.70;127752;1091;104459;-75
2020/12/23 03:09:07;;;;;;;42.37;17.40;;;;;;;0.79;73.20;101215.25;127052;1091;104561;-76
2020/12/23 03:11:36;;;;;;;40.67;18.27;;;;;;;0.81;73.88;101208.55;127765;1092;104241;-75
2020/12/23 03:14:06;;;;;;;34.63;15.70;;;;;;;0.83;73.32;101208.69;127785;1092;104545;-74
2020/12/23 03:16:35;;;;;;;43.60;20.20;;;;;;;0.86;73.80;101208.95;127761;1091;104478;-75
2020/12/23 03:19:12;;;;;;;39.80;17.00;;;;;;;0.91;73.70;101214.52;127748;1091;104414;-74
2020/12/23 03:21:43;;;;;;;38.37;18.47;;;;;;;0.94;73.66;101204.44;127761;1092;104436;-75
2020/12/23 03:24:13;;;;;;;45.10;20.33;;;;;;;0.98;73.73;101214.24;127720;1092;104414;-75
2020/12/23 03:26:43;;;;;;;42.83;18.13;;;;;;;0.98;73.88;101220.34;127789;1091;104615;-75
2020/12/23 03:29:12;;;;;;;44.70;20.57;;;;;;;0.99;73.77;101216.06;127795;1092;104413;-75
2020/12/23 03:31:43;;;;;;;41.77;17.83;;;;;;;1.01;73.52;101212.84;127809;1091;104410;-74
2020/12/23 03:34:12;;;;;;;43.30;19.60;;;;;;;1.02;73.60;101205.98;127785;1091;104669;-74
2020/12/23 03:36:42;;;;;;;45.10;19.57;;;;;;;1.03;73.96;101211.28;127710;1091;104432;-74
2020/12/23 03:39:11;;;;;;;40.23;17.30;;;;;;;1.05;73.44;101204.56;127782;1092;104449;-73
2020/12/23 03:41:40;;;;;;;43.37;19.23;;;;;;;1.05;73.61;101195.91;127741;1092;104411;-75
2020/12/23 03:44:10;;;;;;;41.40;18.67;;;;;;;1.07;73.71;101192.66;127834;1092;104521;-75
2020/12/23 03:46:40;;;;;;;43.03;19.77;;;;;;;1.11;74.24;101198.09;127769;1091;104769;-75
2020/12/23 03:49:09;;;;;;;42.95;18.60;;;;;;;1.13;73.81;101206.90;127798;1091;104426;-74
2020/12/23 03:51:40;;;;;;;40.13;17.53;;;;;;;1.14;74.09;101204.45;127784;1092;104423;-74
2020/12/23 03:54:12;;;;;;;47.23;19.98;;;;;;;1.14;74.15;101206.10;127776;1092;105006;-74
2020/12/23 03:56:41;;;;;;;44.33;18.70;;;;;;;1.16;73.97;101191.65;127811;1091;104477;-75
2020/12/23 03:59:10;;;;;;;49.27;19.97;;;;;;;1.19;73.98;101182.46;127758;1091;104416;-73
2020/12/23 04:01:39;;;;;;;43.00;18.97;;;;;;;1.20;73.84;101173.02;127737;1092;104500;-75
2020/12/23 04:04:07;;;;;;;40.20;18.67;;;;;;;1.20;74.05;101163.59;127760;1091;104410;-75
2020/12/23 04:06:36;;;;;;;42.67;19.03;;;;;;;1.23;73.98;101162.92;127733;1092;104445;-74
2020/12/23 04:09:05;;;;;;;46.63;19.10;;;;;;;1.20;74.07;101160.09;127765;1091;104423;-74
2020/12/23 04:11:34;;;;;;;43.53;19.60;;;;;;;1.20;73.98;101162.67;127778;1092;104608;-75
2020/12/23 04:14:05;;;;;;;46.27;20.20;;;;;;;1.22;73.90;101162.03;127747;1092;104670;-75
2020/12/23 04:16:34;;;;;;;40.53;17.20;;;;;;;1.28;73.97;101155.55;127803;1092;104500;-75
2020/12/23 04:19:04;;;;;;;42.90;20.17;;;;;;;1.28;73.74;101166.83;127785;1091;104413;-76
2020/12/23 04:21:33;;;;;;;40.47;18.10;;;;;;;1.29;73.84;101168.61;127815;1091;104478;-75
2020/12/23 04:24:01;;;;;;;41.80;18.53;;;;;;;1.29;74.25;101165.13;127771;1091;104522;-76
2020/12/23 04:26:30;;;;;;;37.30;15.47;;;;;;;1.29;74.29;101171.20;127689;1092;104542;-75
2020/12/23 04:28:59;;;;;;;42.65;18.35;;;;;;;1.28;74.04;101174.58;127673;1092;104410;-75
2020/12/23 04:31:28;;;;;;;41.50;18.57;;;;;;;1.32;74.26;101181.80;127747;1092;104416;-74
2020/12/23 04:33:57;;;;;;;41.30;18.37;;;;;;;1.36;74.37;101178.70;127696;1091;104420;-76
2020/12/23 04:36:27;;;;;;;43.53;18.87;;;;;;;1.37;74.34;101177.01;127743;1091;104597;-75
2020/12/23 04:38:56;;;;;;;37.80;15.10;;;;;;;1.37;74.54;101172.77;127781;1092;104445;-73
2020/12/23 04:41:27;;;;;;;44.07;19.37;;;;;;;1.33;74.42;101165.52;127759;1091;104423;-76
2020/12/23 04:43:58;;;;;;;38.80;16.60;;;;;;;1.37;74.54;101161.49;127790;1093;104500;-75
2020/12/23 04:46:40;;;;;;;40.73;17.03;;;;;;;1.39;74.54;101168.61;127832;1091;104408;-75
2020/12/23 04:49:09;;;;;;;36.70;16.77;;;;;;;1.42;74.64;101170.56;127807;1092;104564;-74
2020/12/23 04:51:40;;;;;;;44.00;18.80;;;;;;;1.44;74.12;101167.30;127730;1092;104410;-75
2020/12/23 04:54:09;;;;;;;35.93;15.00;;;;;;;1.47;74.41;101165.77;127723;1092;104417;-74
2020/12/23 04:56:39;;;;;;;42.57;19.07;;;;;;;1.44;74.54;101172.47;127781;1092;104465;-76
2020/12/23 04:59:08;;;;;;;43.60;17.50;;;;;;;1.45;74.37;101178.58;127742;1092;104410;-76
2020/12/23 05:01:37;;;;;;;42.67;17.77;;;;;;;1.49;74.55;101171.96;127768;1092;104419;-75
2020/12/23 05:04:06;;;;;;;42.80;18.40;;;;;;;1.52;74.45;101174.80;127695;1091;104555;-75
2020/12/23 05:06:37;;;;;;;45.77;19.70;;;;;;;1.54;74.49;101168.06;127687;1092;104414;-75
2020/12/23 05:09:07;;;;;;;40.77;17.80;;;;;;;1.57;74.27;101176.08;127650;1092;104527;-75
2020/12/23 05:11:37;;;;;;;46.70;19.33;;;;;;;1.57;74.75;101187.35;127589;1092;104470;-76
2020/12/23 05:14:07;;;;;;;44.97;19.07;;;;;;;1.57;74.55;101177.00;127736;1092;104420;-75
2020/12/23 05:16:40;;;;;;;45.07;19.33;;;;;;;1.61;74.66;101188.50;127652;1092;104435;-76
2020/12/23 05:19:19;;;;;;;46.00;18.80;;;;;;;1.66;74.13;101184.59;127730;1092;104458;-75
2020/12/23 05:21:50;;;;;;;40.17;18.00;;;;;;;1.71;73.98;101179.80;127595;1091;104875;-76
2020/12/23 05:24:26;;;;;;;37.33;14.97;;;;;;;1.72;74.43;101179.92;127732;1092;104487;-73
2020/12/23 05:27:10;;;;;;;42.60;17.87;;;;;;;1.68;74.47;101179.55;127722;1091;104410;-75
2020/12/23 05:29:53;;;;;;;43.97;17.20;;;;;;;1.66;74.49;101174.25;127749;1091;104423;-73
2020/12/23 05:32:26;;;;;;;40.47;18.43;;;;;;;1.66;74.13;101176.83;127767;1092;104545;-75
2020/12/23 05:35:00;;;;;;;42.07;16.73;;;;;;;1.70;74.33;101181.49;127726;1092;104407;-74
2020/12/23 05:37:30;;;;;;;44.53;18.47;;;;;;;1.73;74.56;101178.23;127679;1092;104494;-75
2020/12/23 05:40:00;;;;;;;37.10;16.85;;;;;;;1.75;74.64;101177.59;127583;1092;104435;-75
2020/12/23 05:42:31;;;;;;;41.07;17.30;;;;;;;1.74;74.88;101180.95;127184;1092;104542;-75
2020/12/23 05:45:00;;;;;;;42.73;18.03;;;;;;;1.74;74.43;101160.24;127186;1093;104439;-75
2020/12/23 05:47:29;;;;;;;39.87;16.73;;;;;;;1.73;74.88;101153.28;127482;1092;104551;-74
2020/12/23 05:49:58;;;;;;;44.77;19.53;;;;;;;1.75;74.82;101158.58;127423;1092;104423;-77
2020/12/23 05:52:27;;;;;;;46.70;19.05;;;;;;;1.75;74.24;101151.71;127296;1091;104545;-76
2020/12/23 05:54:56;;;;;;;45.83;18.73;;;;;;;1.79;73.96;101166.72;127481;1092;104465;-75
2020/12/23 05:57:25;;;;;;;44.27;19.27;;;;;;;1.78;74.71;101166.59;127659;1092;104468;-74
2020/12/23 05:59:56;;;;;;;44.10;19.40;;;;;;;1.75;74.46;101175.00;127563;1092;104405;-76
2020/12/23 06:02:28;;;;;;;48.47;19.70;;;;;;;1.74;74.59;101175.77;127490;1091;104621;-75
2020/12/23 06:05:02;;;;;;;48.30;19.40;;;;;;;1.75;74.65;101168.94;127566;1092;104448;-75
2020/12/23 06:07:34;;;;;;;45.23;18.67;;;;;;;1.77;74.66;101181.20;127306;1092;104558;-76
2020/12/23 06:10:04;;;;;;;43.20;20.20;;;;;;;1.82;74.25;101183.27;127962;1092;104436;-76
2020/12/23 06:12:38;;;;;;;44.07;19.23;;;;;;;1.87;74.73;101189.70;127465;1092;104443;-76
2020/12/23 06:15:16;;;;;;;42.57;20.17;;;;;;;1.87;74.16;101188.05;127678;1092;104520;-76
2020/12/23 06:17:46;;;;;;;47.37;21.87;;;;;;;1.93;74.44;101206.67;127466;1092;104506;-77
2020/12/23 06:20:16;;;;;;;43.73;19.97;;;;;;;1.95;74.74;101209.38;127355;1091;104513;-77
2020/12/23 06:22:48;;;;;;;45.37;20.13;;;;;;;1.96;74.97;101214.69;127316;1092;104433;-76
2020/12/23 06:25:18;;;;;;;41.97;17.20;;;;;;;1.98;74.64;101215.70;127449;1092;104471;-76
2020/12/23 06:27:52;;;;;;;47.30;20.10;;;;;;;2.00;75.27;101209.76;127567;1092;104462;-77
2020/12/23 06:30:22;;;;;;;39.27;18.00;;;;;;;2.03;74.93;101199.66;127489;1092;104590;-77
2020/12/23 06:32:51;;;;;;;40.27;16.97;;;;;;;2.03;74.67;101200.55;127545;1092;104545;-79
2020/12/23 06:35:24;;;;;;;39.13;18.50;;;;;;;2.05;74.91;101208.44;127434;1092;103369;-76
2020/12/23 06:37:53;;;;;;;46.27;19.10;;;;;;;2.07;75.28;101202.61;127464;1091;104436;-77
2020/12/23 06:40:22;;;;;;;42.67;18.03;;;;;;;2.09;75.55;101182.92;127511;1091;104599;-75
2020/12/23 06:42:52;;;;;;;45.80;20.17;;;;;;;2.14;75.26;101183.28;127383;1092;104592;-77
2020/12/23 06:45:21;;;;;;;40.43;17.03;;;;;;;2.16;74.84;101177.43;127287;1091;104657;-77
2020/12/23 06:47:50;;;;;;;37.63;16.23;;;;;;;2.21;74.91;101184.67;127273;1091;104474;-74
2020/12/23 06:50:33;;;;;;;39.63;17.57;;;;;;;2.27;75.17;101180.88;127352;1092;104484;-74
2020/12/23 06:53:03;;;;;;;33.57;14.20;;;;;;;2.34;74.71;101185.78;127400;1092;104512;-74
2020/12/23 06:55:47;;;;;;;31.40;14.10;;;;;;;2.40;74.81;101189.63;127525;1092;104712;-77
2020/12/23 06:58:41;;;;;;;39.75;17.60;;;;;;;2.45;74.62;101191.81;128833;1092;102421;-77
2020/12/23 07:01:18;;;;;;;44.33;18.03;;;;;;;2.54;75.30;101180.36;128839;1092;102453;-74
2020/12/23 07:03:48;;;;;;;;;;;;;;;2.59;75.17;101173.88;128929;1092;102395;-74
2020/12/23 07:06:32;;;;;;;40.03;17.20;;;;;;;2.64;74.82;101177.72;127731;1092;104439;-74
2020/12/23 07:09:08;;;;;;;39.42;16.77;;;;;;;2.74;75.40;101189.70;127501;1092;104627;-75
2020/12/23 07:11:41;;;;;;;37.00;15.53;;;;;;;2.79;74.92;101190.95;127336;1092;104596;-75
2020/12/23 07:14:15;;;;;;;38.53;15.90;;;;;;;2.79;75.19;101193.54;127453;1091;104439;-74
2020/12/23 07:16:47;;;;;;;41.85;17.62;;;;;;;2.81;74.62;101192.00;127579;1092;105043;-75
2020/12/23 07:19:21;;;;;;;42.63;17.83;;;;;;;2.82;75.29;101197.30;127561;1092;104433;-76
2020/12/23 07:21:50;;;;;;;;;;;;;;;2.83;75.07;101196.48;127953;1092;105074;-75
2020/12/23 07:24:22;;;;;;;31.90;13.93;;;;;;;2.83;74.85;101193.90;127458;1092;104439;-73
2020/12/23 07:26:53;;;;;;;40.07;17.40;;;;;;;2.86;75.35;101201.02;127465;1092;104484;-74
2020/12/23 07:29:27;;;;;;;40.03;16.97;;;;;;;2.88;75.05;101194.26;127349;1091;104433;-75
2020/12/23 07:31:57;;;;;;;33.48;14.78;;;;;;;2.88;74.61;101195.19;127334;1091;104436;-77
2020/12/23 07:34:31;;;;;;;36.33;15.70;;;;;;;2.85;75.05;101188.83;127462;1091;104452;-75
2020/12/23 07:37:01;;;;;;;;;;;;;;;2.80;75.37;101190.17;127434;1091;104989;-76
2020/12/23 07:39:32;;;;;;;42.20;17.73;;;;;;;2.80;75.28;101184.99;127356;1092;104538;-74
2020/12/23 07:42:08;;;;;;;36.07;15.97;;;;;;;2.83;75.45;101186.13;127273;1092;104860;-75
2020/12/23 07:44:40;;;;;;;37.10;16.63;;;;;;;2.82;74.89;101181.74;128415;1093;104480;-76
2020/12/23 07:47:09;;;;;;;37.77;16.60;;;;;;;2.81;75.43;101179.03;127367;1091;104519;-75
2020/12/23 07:49:38;;;;;;;37.97;16.40;;;;;;;2.84;75.58;101179.27;127370;1093;104461;-76
2020/12/23 07:52:08;;;;;;;40.40;16.73;;;;;;;2.86;75.21;101177.69;127641;1091;104866;-76
2020/12/23 07:54:40;;;;;;;38.90;16.83;;;;;;;2.92;74.98;101177.27;127612;1091;105341;-75
2020/12/23 07:57:09;;;;;;;36.90;16.60;;;;;;;2.96;74.74;101181.89;127404;1091;104506;-76
2020/12/23 07:59:38;;;;;;;33.77;11.90;;;;;;;2.98;75.05;101182.94;127283;1092;104446;-77
2020/12/23 08:02:11;;;;;;;39.30;18.27;;;;;;;2.97;75.07;101186.30;127310;1091;104469;-77
2020/12/23 08:04:43;;;;;;;35.87;15.17;;;;;;;2.96;75.35;101179.30;128353;1092;104427;-76
2020/12/23 08:07:20;;;;;;;34.17;15.00;;;;;;;2.96;75.25;101179.30;127500;1092;104587;-75
2020/12/23 08:09:51;;;;;;;36.07;16.33;;;;;;;2.94;75.58;101178.28;127551;1093;104541;-76
2020/12/23 08:12:22;;;;;;;34.83;16.00;;;;;;;2.93;75.42;101169.61;127322;1092;104436;-75
2020/12/23 08:14:52;;;;;;;35.90;15.70;;;;;;;2.93;75.35;101166.09;127246;1091;104407;-78
2020/12/23 08:17:25;;;;;;;37.37;17.60;;;;;;;2.92;75.27;101160.02;126923;1095;104561;-76
2020/12/23 08:20:07;;;;;;;41.63;17.60;;;;;;;2.88;75.60;101163.15;127063;1095;104611;-78
2020/12/23 08:22:37;;;;;;;39.70;16.67;;;;;;;2.87;75.79;101163.95;127035;1095;104669;-76
2020/12/23 08:25:18;;;;;;;37.80;15.30;;;;;;;2.86;75.85;101151.77;127020;1094;104449;-77
2020/12/23 08:27:48;;;;;;;33.17;13.93;;;;;;;2.88;76.09;101155.37;127092;1094;104794;-77
2020/12/23 08:30:33;;;;;;;40.23;17.83;;;;;;;2.93;75.37;101155.73;126817;1094;104508;-77
2020/12/23 08:33:27;;;;;;;40.00;16.37;;;;;;;2.96;75.60;101140.41;126862;1094;104789;-78
2020/12/23 08:36:16;;;;;;;41.23;16.67;;;;;;;2.92;75.20;101139.28;126847;1095;104490;-78
2020/12/23 08:38:57;;;;;;;35.83;15.80;;;;;;;2.96;75.94;101146.52;128392;1095;103564;-76
2020/12/23 08:41:27;;;;;;;35.43;15.37;;;;;;;3.00;75.46;101152.83;127803;1095;103393;-75
2020/12/23 08:44:05;;;;;;;40.53;18.37;;;;;;;2.98;76.09;101144.94;126903;1095;104301;-79
2020/12/23 08:46:39;;;;;;;40.50;16.93;;;;;;;2.98;75.83;101142.34;127007;1094;104685;-78
2020/12/23 08:49:11;;;;;;;40.00;16.65;;;;;;;2.96;76.11;101148.19;127274;1092;104554;-77
2020/12/23 08:51:40;;;;;;;43.77;18.53;;;;;;;2.98;75.43;101146.63;127414;1091;104539;-77
2020/12/23 08:54:18;;;;;;;42.47;19.30;;;;;;;2.99;75.71;101148.42;127434;1092;104487;-77
2020/12/23 08:56:49;;;;;;;41.27;18.80;;;;;;;3.02;75.92;101154.77;127502;1092;104436;-77
2020/12/23 08:59:19;;;;;;;41.43;18.53;;;;;;;3.06;75.81;101148.11;126985;1095;104445;-75
2020/12/23 09:01:48;;;;;;;43.77;18.23;;;;;;;3.13;75.98;101152.98;127145;1094;104685;-74
2020/12/23 09:04:19;;;;;;;42.67;19.90;;;;;;;3.23;75.87;101157.17;127078;1094;104753;-77
2020/12/23 09:06:59;;;;;;;44.50;18.70;;;;;;;3.33;75.89;101145.79;127049;1094;104644;-77
2020/12/23 09:09:28;;;;;;;41.40;18.30;;;;;;;3.42;75.86;101139.59;127075;1093;104557;-76
2020/12/23 09:12:04;;;;;;;38.63;16.40;;;;;;;3.45;76.31;101148.41;127004;1094;104554;-77
2020/12/23 09:14:38;;;;;;;43.03;17.63;;;;;;;3.40;76.23;101151.55;127016;1094;104467;-76
2020/12/23 09:17:09;;;;;;;40.03;17.77;;;;;;;3.38;76.09;101144.43;127101;1092;104742;-76
2020/12/23 09:20:03;;;;;;;45.23;18.70;;;;;;;3.36;76.16;101138.23;126937;1092;104634;-78
2020/12/23 09:22:37;;;;;;;32.30;14.20;;;;;;;3.39;76.40;101128.09;127086;1093;104619;-77
2020/12/23 09:25:19;;;;;;;44.47;16.67;;;;;;;3.41;76.03;101122.23;127341;1093;104550;-75
2020/12/23 09:27:51;;;;;;;42.07;17.40;;;;;;;3.45;76.38;101125.06;127251;1092;104487;-76
2020/12/23 09:30:38;;;;;;;35.63;14.93;;;;;;;3.48;76.61;101123.58;127297;1091;104516;-74
2020/12/23 09:33:09;;;;;;;40.23;17.17;;;;;;;3.45;76.65;101102.60;127538;1092;104451;-76
2020/12/23 09:35:39;;;;;;;36.57;14.30;;;;;;;3.53;76.70;101095.38;127530;1092;104417;-76
2020/12/23 09:38:10;;;;;;;34.90;15.77;;;;;;;3.58;75.96;101089.75;127609;1091;104413;-75
2020/12/23 09:40:42;;;;;;;37.33;16.87;;;;;;;3.57;76.54;101087.05;127623;1091;104653;-77
2020/12/23 09:43:13;;;;;;;33.50;16.43;;;;;;;3.57;76.91;101090.53;127448;1092;104480;-76
2020/12/23 09:45:43;;;;;;;37.57;17.40;;;;;;;3.64;76.52;101088.37;127533;1092;104617;-77
2020/12/23 09:48:14;;;;;;;34.93;15.50;;;;;;;3.69;77.01;101079.23;127550;1092;104469;-76
2020/12/23 09:50:47;;;;;;;38.23;16.53;;;;;;;3.76;77.08;101065.91;127645;1092;104566;-76
2020/12/23 09:53:19;;;;;;;36.07;17.03;;;;;;;3.90;76.78;101059.12;127498;1092;104539;-75
2020/12/23 09:55:51;;;;;;;30.50;13.53;;;;;;;3.96;76.50;101044.86;127389;1091;104570;-75
2020/12/23 09:58:29;;;;;;;37.83;17.37;;;;;;;4.01;76.37;101049.49;127474;1091;104504;-76
2020/12/23 10:00:58;;;;;;;34.35;16.35;;;;;;;4.08;76.37;101046.52;127528;1092;104477;-77
2020/12/23 10:03:27;;;;;;;36.77;16.40;;;;;;;4.05;76.24;101057.61;127431;1091;104561;-76
2020/12/23 10:06:00;;;;;;;27.87;12.50;;;;;;;4.06;76.22;101043.81;127289;1092;104414;-76
2020/12/23 10:08:29;;;;;;;35.93;15.47;;;;;;;4.04;76.22;101039.32;127359;1092;104586;-78
2020/12/23 10:10:59;;;;;;;37.27;17.23;;;;;;;4.09;76.62;101043.14;127363;1091;104432;-79
2020/12/23 10:13:31;;;;;;;;;;;;;;;4.15;76.93;101035.77;127440;1091;104525;-76
2020/12/23 10:16:01;;;;;;;37.73;16.17;;;;;;;4.15;76.48;101038.38;127523;1092;104475;-75
2020/12/23 10:18:32;;;;;;;31.87;15.73;;;;;;;4.12;76.88;101027.77;127249;1091;104456;-76
2020/12/23 10:21:02;;;;;;;34.27;15.50;;;;;;;4.11;76.40;101028.55;127532;1092;104434;-77
2020/12/23 10:23:31;;;;;;;35.77;15.93;;;;;;;4.14;76.94;101024.49;127587;1092;104503;-76
2020/12/23 10:26:01;;;;;;;36.67;16.33;;;;;;;4.18;76.65;101028.20;127535;1092;104449;-76
2020/12/23 10:28:33;;;;;;;37.73;17.53;;;;;;;4.18;76.43;101023.00;127395;1092;104590;-77
2020/12/23 10:31:06;;;;;;;29.05;12.05;;;;;;;4.19;76.25;101027.41;127419;1092;104449;-78
2020/12/23 10:33:36;;;;;;;36.30;16.53;;;;;;;4.13;76.94;101024.38;128360;1092;104413;-75
2020/12/23 10:36:12;;;;;;;34.30;14.77;;;;;;;4.11;76.55;101025.95;127383;1093;104528;-76
2020/12/23 10:38:42;;;;;;;38.27;15.23;;;;;;;4.11;76.53;101015.56;128313;1092;102881;-76
2020/12/23 10:41:18;;;;;;;38.03;18.13;;;;;;;4.15;76.55;101014.99;127422;1091;104439;-78
2020/12/23 10:43:54;;;;;;;36.17;17.77;;;;;;;4.24;77.06;101014.70;127480;1092;104458;-77
2020/12/23 10:46:24;;;;;;;37.73;17.00;;;;;;;4.24;76.50;101007.84;127544;1092;104600;-78
2020/12/23 10:48:56;;;;;;;37.50;16.20;;;;;;;4.20;76.41;101005.81;127358;1092;104500;-77
2020/12/23 10:51:27;;;;;;;31.10;13.57;;;;;;;4.21;76.59;100998.95;127452;1092;104439;-76
2020/12/23 10:53:56;;;;;;;34.43;15.50;;;;;;;4.23;76.94;100999.94;127375;1092;104561;-79
2020/12/23 10:56:26;;;;;;;35.15;15.80;;;;;;;4.25;76.86;100998.34;127290;1092;104942;-76
2020/12/23 10:58:56;;;;;;;35.37;16.53;;;;;;;4.25;76.74;100990.55;127230;1091;104552;-76
2020/12/23 11:01:25;;;;;;;40.57;17.43;;;;;;;4.23;76.68;100979.16;127056;1093;104685;-76
2020/12/23 11:03:54;;;;;;;31.97;13.83;;;;;;;4.26;76.42;100971.58;127180;1092;104439;-73
2020/12/23 11:06:24;;;;;;;32.07;15.13;;;;;;;4.29;76.58;100958.80;127163;1092;104417;-77
2020/12/23 11:08:53;;;;;;;31.20;13.23;;;;;;;4.35;77.49;100953.09;127157;1092;104416;-75
2020/12/23 11:11:24;;;;;;;35.37;15.47;;;;;;;4.39;76.96;100955.11;127236;1091;104549;-77
2020/12/23 11:13:54;;;;;;;35.93;16.60;;;;;;;4.46;77.17;100960.83;127155;1092;104484;-79
2020/12/23 11:16:25;;;;;;;39.70;18.53;;;;;;;4.49;76.79;100967.95;127161;1093;104468;-78
2020/12/23 11:18:55;;;;;;;33.13;14.27;;;;;;;4.48;77.25;100958.34;127289;1092;104468;-74
2020/12/23 11:21:41;;;;;;;35.60;15.83;;;;;;;4.50;77.02;100948.94;127417;1092;104442;-74
2020/12/23 11:24:10;;;;;;;29.60;13.65;;;;;;;4.46;76.24;100946.95;127291;1092;104555;-74
2020/12/23 11:26:43;;;;;;;33.77;15.70;;;;;;;4.38;77.00;100953.30;127418;1092;104459;-75
2020/12/23 11:29:12;;;;;;;35.07;15.80;;;;;;;4.41;76.88;100956.11;128826;1092;102153;-76